Time;durP1;ratioP1;P1;durP2;ratioP2;P2;SDS_P1;SDS_P2;PMS_P1;PMS_P2;Temp;Humidity;BMP_temperature;BMP_pressure;BME280_temperature;BME280_humidity;BME280_pressure;Samples;Min_cycle;Max_cycle;Signal;HPM_P1;HPM_P2
2023/10/03 00:16:43;;;;;;;11.32;6.32;;;21.00;99.90;;;;;;4547683;19;20041;31
2023/10/03 00:18:19;;;;;;;7.82;5.57;;;21.00;99.90;;;;;;4592873;19;20309;-69
2023/10/03 00:19:52;;;;;;;9.98;6.55;;;21.00;99.90;;;;;;4590822;19;20025;-69
2023/10/03 00:21:28;;;;;;;11.68;5.75;;;20.90;99.90;;;;;;4592521;19;20002;-69
2023/10/03 00:23:04;;;;;;;10.02;6.32;;;21.00;99.90;;;;;;4592552;19;20066;-69
2023/10/03 00:24:38;;;;;;;10.68;6.40;;;20.90;99.90;;;;;;4592561;19;20014;-69
2023/10/03 00:26:16;;;;;;;8.93;6.38;;;20.90;99.90;;;;;;4592475;19;20078;-69
2023/10/03 00:27:53;;;;;;;8.52;5.95;;;20.90;99.90;;;;;;4590090;19;20031;-69
2023/10/03 00:29:29;;;;;;;10.63;6.30;;;20.90;99.90;;;;;;4591348;19;20489;-69
2023/10/03 00:31:09;;;;;;;11.40;6.00;;;20.90;99.90;;;;;;4591432;19;20002;-69
2023/10/03 00:32:46;;;;;;;8.98;5.85;;;20.90;99.90;;;;;;4591084;19;20327;-69
2023/10/03 00:34:23;;;;;;;8.70;5.85;;;20.90;99.90;;;;;;4592178;19;20021;-69
2023/10/03 00:35:58;;;;;;;8.23;5.97;;;20.90;99.90;;;;;;4592583;19;20341;-69
2023/10/03 00:37:34;;;;;;;10.13;6.40;;;20.90;99.90;;;;;;4591596;19;20018;-69
2023/10/03 00:39:09;;;;;;;10.23;7.15;;;20.90;99.90;;;;;;4592486;19;20007;-69
2023/10/03 00:40:48;;;;;;;10.63;6.80;;;20.90;99.90;;;;;;4592200;19;19999;-69
2023/10/03 00:42:24;;;;;;;9.82;6.70;;;20.90;99.90;;;;;;4592288;19;20321;-69
2023/10/03 00:44:01;;;;;;;10.55;6.25;;;20.90;99.90;;;;;;4592457;19;20081;-69
2023/10/03 00:45:38;;;;;;;8.13;5.68;;;20.90;99.90;;;;;;4592424;19;20010;-69
2023/10/03 00:47:14;;;;;;;10.40;6.85;;;20.90;99.90;;;;;;4590372;19;20003;-69
2023/10/03 00:48:48;;;;;;;10.20;6.60;;;20.90;99.90;;;;;;4592001;19;20036;-69
2023/10/03 00:50:28;;;;;;;10.52;6.85;;;20.90;99.90;;;;;;4590769;19;20454;-69
2023/10/03 00:52:09;;;;;;;11.13;7.35;;;20.90;99.90;;;;;;4590781;19;20023;-69
2023/10/03 00:53:43;;;;;;;11.73;7.57;;;20.90;99.90;;;;;;4592102;19;20322;-69
2023/10/03 00:55:17;;;;;;;11.13;7.65;;;20.90;99.90;;;;;;4591935;19;19999;-69
2023/10/03 00:56:52;;;;;;;10.98;7.82;;;20.80;99.90;;;;;;4591763;19;20104;-69
2023/10/03 00:58:31;;;;;;;12.10;8.23;;;20.80;99.90;;;;;;4591850;19;20003;-69
2023/10/03 01:00:16;;;;;;;10.95;7.47;;;20.90;99.90;;;;;;4592251;19;20013;-69
2023/10/03 01:01:58;;;;;;;11.65;7.55;;;20.80;99.90;;;;;;4592165;19;20074;-69
2023/10/03 01:03:37;;;;;;;12.35;7.90;;;20.80;99.90;;;;;;4591908;19;20039;-69
2023/10/03 01:05:14;;;;;;;12.68;8.98;;;20.80;99.90;;;;;;4590754;19;20030;-69
2023/10/03 01:06:52;;;;;;;13.68;8.80;;;20.80;99.90;;;;;;4591415;19;20007;-69
2023/10/03 01:08:26;;;;;;;14.45;9.10;;;20.80;99.90;;;;;;4591723;19;20020;-69
2023/10/03 01:10:00;;;;;;;12.48;8.90;;;20.80;99.90;;;;;;4590668;19;20002;-69
2023/10/03 01:11:36;;;;;;;12.25;8.77;;;20.80;99.90;;;;;;4592066;19;20029;-69
2023/10/03 01:13:16;;;;;;;11.15;7.32;;;20.80;99.90;;;;;;4591669;19;20003;-69
2023/10/03 01:14:51;;;;;;;11.52;7.70;;;20.80;99.90;;;;;;4591691;19;20433;-69
2023/10/03 01:16:31;;;;;;;13.75;9.02;;;20.80;99.90;;;;;;4590274;19;20002;-69
2023/10/03 01:18:09;;;;;;;12.20;7.38;;;20.80;99.90;;;;;;4588693;19;20042;-69
2023/10/03 01:19:43;;;;;;;11.38;7.55;;;20.80;99.90;;;;;;4590261;19;20007;-69
2023/10/03 01:21:21;;;;;;;11.35;8.05;;;20.80;99.90;;;;;;4591171;19;20302;-69
2023/10/03 01:22:54;;;;;;;12.27;8.63;;;20.80;99.90;;;;;;4591563;19;20298;-69
2023/10/03 01:24:30;;;;;;;12.82;7.50;;;20.80;99.90;;;;;;4591479;19;20022;-69
2023/10/03 01:26:07;;;;;;;11.82;7.60;;;20.80;99.90;;;;;;4591807;19;20451;-69
2023/10/03 01:27:42;;;;;;;12.68;7.22;;;20.80;99.90;;;;;;4588884;19;20018;-69
2023/10/03 01:29:17;;;;;;;10.20;6.93;;;20.80;99.90;;;;;;4591238;19;20002;-69
2023/10/03 01:30:53;;;;;;;11.68;7.80;;;20.80;99.90;;;;;;4591441;19;20428;-69
2023/10/03 01:32:27;;;;;;;11.00;7.75;;;20.80;99.90;;;;;;4595961;19;20296;-69
2023/10/03 01:34:01;;;;;;;11.02;7.82;;;20.80;99.90;;;;;;4594614;19;20082;-69
2023/10/03 01:35:37;;;;;;;12.98;8.00;;;20.80;99.90;;;;;;4595924;19;20459;-69
2023/10/03 01:37:11;;;;;;;11.93;7.85;;;20.80;99.90;;;;;;4595150;19;20034;-69
2023/10/03 01:38:45;;;;;;;13.23;8.80;;;20.80;99.90;;;;;;4596141;19;19999;-69
2023/10/03 01:40:20;;;;;;;15.45;8.55;;;20.70;99.90;;;;;;4595897;19;20006;-69
2023/10/03 01:41:54;;;;;;;11.90;8.20;;;20.70;99.90;;;;;;4595789;19;20002;-69
2023/10/03 01:43:28;;;;;;;12.18;8.00;;;20.70;99.90;;;;;;4595767;19;20003;-69
2023/10/03 01:45:04;;;;;;;11.43;7.80;;;20.70;99.90;;;;;;4594471;19;20090;-69
2023/10/03 01:46:38;;;;;;;11.43;7.97;;;20.70;99.90;;;;;;4595665;19;19999;-69
2023/10/03 01:48:12;;;;;;;11.57;7.60;;;20.70;99.90;;;;;;4595668;19;20008;-69
2023/10/03 01:49:50;;;;;;;11.20;7.38;;;20.70;99.90;;;;;;4595622;19;20026;-69
2023/10/03 01:51:24;;;;;;;10.95;7.75;;;20.70;99.90;;;;;;4595657;19;20374;-69
2023/10/03 01:52:58;;;;;;;11.48;7.82;;;20.70;99.90;;;;;;4595814;19;20452;-69
2023/10/03 01:54:34;;;;;;;11.52;7.57;;;20.70;99.90;;;;;;4595610;19;20022;-69
2023/10/03 01:56:09;;;;;;;12.55;8.20;;;20.70;99.90;;;;;;4594162;19;20030;-69
2023/10/03 01:57:43;;;;;;;11.98;7.78;;;20.70;99.90;;;;;;4593908;19;20038;-69
2023/10/03 01:59:21;;;;;;;13.48;9.68;;;20.70;99.90;;;;;;4594139;19;20047;-69
2023/10/03 02:00:56;;;;;;;15.27;10.27;;;20.70;99.90;;;;;;4595047;19;20003;-69
2023/10/03 02:02:29;;;;;;;14.35;9.95;;;20.70;99.90;;;;;;4595367;19;20429;-69
2023/10/03 02:04:07;;;;;;;12.68;8.52;;;20.70;99.90;;;;;;4595380;19;20007;-69
2023/10/03 02:05:43;;;;;;;12.07;8.43;;;20.70;99.90;;;;;;4595194;19;20030;-69
2023/10/03 02:07:17;;;;;;;13.05;8.23;;;20.70;99.90;;;;;;4594650;19;20002;-69
2023/10/03 02:08:54;;;;;;;12.57;7.90;;;20.70;99.90;;;;;;4595329;19;20006;-69
2023/10/03 02:10:28;;;;;;;12.82;7.82;;;20.70;99.90;;;;;;4595521;19;20009;-69
2023/10/03 02:12:04;;;;;;;9.02;6.75;;;20.70;99.90;;;;;;4595259;19;20013;-69
2023/10/03 02:13:40;;;;;;;9.57;7.25;;;20.70;99.90;;;;;;4595305;19;20003;-69
2023/10/03 02:15:17;;;;;;;10.80;6.95;;;20.70;99.90;;;;;;4595128;19;20005;-69
2023/10/03 02:16:54;;;;;;;10.43;6.60;;;20.70;99.90;;;;;;4594548;19;20002;-69
2023/10/03 02:18:29;;;;;;;11.57;7.07;;;20.70;99.90;;;;;;4595373;19;20075;-69
2023/10/03 02:20:09;;;;;;;10.98;7.43;;;20.70;99.90;;;;;;4595009;19;20029;-69
2023/10/03 02:21:44;;;;;;;10.18;7.18;;;20.70;99.90;;;;;;4595283;19;20070;-69
2023/10/03 02:23:26;;;;;;;9.63;6.55;;;20.70;99.90;;;;;;4595319;19;20074;-69
2023/10/03 02:25:01;;;;;;;10.88;7.60;;;20.70;99.90;;;;;;4593659;19;20088;-69
2023/10/03 02:26:36;;;;;;;11.05;7.00;;;20.60;99.90;;;;;;4594004;19;20010;-69
2023/10/03 02:28:14;;;;;;;11.60;7.28;;;20.60;99.90;;;;;;4593032;19;20452;-69
2023/10/03 02:29:51;;;;;;;10.65;6.97;;;20.60;99.90;;;;;;4594931;19;20010;-69
2023/10/03 02:31:25;;;;;;;12.43;7.70;;;20.60;99.90;;;;;;4595122;19;19998;-69
2023/10/03 02:33:10;;;;;;;10.75;7.45;;;20.70;99.90;;;;;;4594746;19;20073;-69
2023/10/03 02:34:47;;;;;;;11.43;8.45;;;20.60;99.90;;;;;;4594655;19;20006;-69
2023/10/03 02:36:21;;;;;;;11.70;7.68;;;20.60;99.90;;;;;;4594733;19;20065;-69
2023/10/03 02:37:57;;;;;;;8.82;6.85;;;20.60;99.90;;;;;;4593304;19;20007;-69
2023/10/03 02:39:38;;;;;;;10.93;7.35;;;20.60;99.90;;;;;;4594876;19;20347;-69
2023/10/03 02:41:14;;;;;;;11.43;7.47;;;20.60;99.90;;;;;;4594933;19;20022;-69
2023/10/03 02:42:53;;;;;;;10.15;6.88;;;20.70;99.90;;;;;;4591792;19;20023;-69
2023/10/03 02:44:27;;;;;;;8.43;6.68;;;20.60;99.90;;;;;;4594276;19;20006;-69
2023/10/03 02:46:06;;;;;;;9.13;6.80;;;20.60;99.90;;;;;;4593385;19;20322;-69
2023/10/03 02:47:41;;;;;;;10.25;7.28;;;20.60;99.90;;;;;;4593284;19;20010;-69
2023/10/03 02:49:15;;;;;;;10.73;6.97;;;20.60;99.90;;;;;;4594385;19;20003;-69
2023/10/03 02:50:50;;;;;;;11.52;6.95;;;20.60;99.90;;;;;;4594401;19;19999;-69
2023/10/03 02:52:25;;;;;;;11.35;7.55;;;20.60;99.90;;;;;;4593325;19;20445;-69
2023/10/03 02:54:00;;;;;;;10.57;7.18;;;20.60;99.90;;;;;;4592932;19;20086;-69
2023/10/03 02:55:34;;;;;;;11.05;8.30;;;20.60;99.90;;;;;;4593891;19;20007;-69
2023/10/03 02:57:10;;;;;;;10.82;6.80;;;20.60;99.90;;;;;;4593744;19;20304;-69
2023/10/03 02:58:45;;;;;;;11.43;8.27;;;20.60;99.90;;;;;;4593121;19;20003;-69
2023/10/03 03:00:19;;;;;;;10.60;7.10;;;20.60;99.90;;;;;;4593860;19;19995;-69
2023/10/03 03:01:56;;;;;;;11.40;7.70;;;20.60;99.90;;;;;;4594225;19;20379;-69
2023/10/03 03:03:32;;;;;;;11.30;7.30;;;20.60;99.90;;;;;;4594165;19;20009;-69
2023/10/03 03:05:08;;;;;;;10.05;6.60;;;20.60;99.90;;;;;;4592841;19;20003;-69
2023/10/03 03:06:46;;;;;;;9.63;7.40;;;20.60;99.90;;;;;;4593858;19;20440;-69
2023/10/03 03:09:59;;;;;;;9.27;6.32;;;20.60;99.90;;;;;;4593947;19;20015;-69
2023/10/03 03:11:34;;;;;;;10.52;7.07;;;20.60;99.90;;;;;;4594007;19;20006;-69
2023/10/03 03:13:12;;;;;;;14.73;6.97;;;20.60;99.90;;;;;;4592599;19;20013;-69
2023/10/03 03:14:47;;;;;;;10.80;7.03;;;20.60;99.90;;;;;;4592659;19;20002;-69
2023/10/03 03:16:22;;;;;;;9.38;7.18;;;20.50;99.90;;;;;;4593519;19;20022;-69
2023/10/03 03:17:57;;;;;;;11.52;7.15;;;20.60;99.90;;;;;;4592326;19;20023;-69
2023/10/03 03:19:33;;;;;;;10.93;7.70;;;20.60;99.90;;;;;;4593766;19;20005;-69
2023/10/03 03:21:08;;;;;;;10.95;7.72;;;20.60;99.90;;;;;;4592747;19;20002;-69
2023/10/03 03:22:47;;;;;;;10.38;8.43;;;20.50;99.90;;;;;;4593505;19;20003;-69
2023/10/03 03:24:28;;;;;;;9.13;6.60;;;20.60;99.90;;;;;;4593775;19;20298;-69
2023/10/03 03:26:17;;;;;;;8.93;6.60;;;20.50;99.90;;;;;;4593780;19;20006;-69
2023/10/03 03:27:56;;;;;;;10.85;7.15;;;20.50;99.90;;;;;;4591426;19;20011;-69
2023/10/03 03:29:35;;;;;;;9.95;7.10;;;20.50;99.90;;;;;;4593583;19;20006;-69
2023/10/03 03:31:26;;;;;;;9.85;7.43;;;20.60;99.90;;;;;;4593543;19;20330;-69
2023/10/03 03:33:00;;;;;;;;;;;20.50;99.90;;;;;;4593032;19;20375;-69
2023/10/03 03:34:34;;;;;;;11.95;7.55;;;20.50;99.90;;;;;;4593384;19;20002;-69
2023/10/03 03:36:08;;;;;;;11.85;7.25;;;20.50;99.90;;;;;;4593438;19;20003;-69
2023/10/03 03:37:45;;;;;;;10.52;7.13;;;20.50;99.90;;;;;;4592847;19;20010;-69
2023/10/03 03:39:20;;;;;;;10.00;7.05;;;20.50;99.90;;;;;;4593479;19;20002;-69
2023/10/03 03:41:01;;;;;;;11.90;7.70;;;20.50;99.90;;;;;;4593621;19;20002;-69
2023/10/03 03:42:37;;;;;;;11.07;7.70;;;20.50;99.90;;;;;;4592051;19;20002;-69
2023/10/03 03:44:18;;;;;;;10.23;7.85;;;20.50;99.90;;;;;;4592998;19;20426;-69
2023/10/03 03:45:56;;;;;;;12.27;8.50;;;20.50;99.90;;;;;;4592198;19;20013;-69
2023/10/03 03:47:33;;;;;;;12.15;8.30;;;20.60;99.90;;;;;;4592037;19;20435;-69
2023/10/03 03:49:08;;;;;;;12.15;7.80;;;20.60;99.90;;;;;;4593492;19;20007;-68
2023/10/03 03:50:46;;;;;;;14.18;8.45;;;20.70;99.90;;;;;;4593395;19;19998;-69
2023/10/03 03:52:23;;;;;;;13.00;8.32;;;20.70;99.90;;;;;;4591817;19;20011;-69
2023/10/03 03:53:59;;;;;;;9.90;8.00;;;20.80;99.90;;;;;;4592623;19;19998;-69
2023/10/03 03:55:37;;;;;;;10.52;6.90;;;20.90;99.90;;;;;;4590096;19;20022;-69
2023/10/03 03:57:12;;;;;;;10.20;8.60;;;21.00;99.90;;;;;;4591503;19;20018;-68
2023/10/03 03:58:48;;;;;;;11.00;8.45;;;20.50;99.90;;;;;;4591888;19;20002;-69
2023/10/03 04:00:23;;;;;;;11.45;9.00;;;19.10;99.90;;;;;;4592625;19;20006;-68
2023/10/03 04:01:59;;;;;;;11.40;9.40;;;18.40;99.90;;;;;;4593008;19;20013;-68
2023/10/03 04:03:34;;;;;;;11.52;9.23;;;18.10;99.90;;;;;;4593261;19;20006;-69
2023/10/03 04:05:13;;;;;;;10.43;8.73;;;17.90;99.90;;;;;;4592846;19;20425;-68
2023/10/03 04:06:52;;;;;;;10.98;8.82;;;17.80;99.90;;;;;;4591211;19;20077;-68
2023/10/03 04:08:26;;;;;;;12.02;9.65;;;17.70;99.90;;;;;;4592469;19;20028;-69
2023/10/03 04:10:03;;;;;;;12.13;9.77;;;17.70;99.90;;;;;;4593041;19;20002;-68
2023/10/03 04:11:39;;;;;;;12.02;9.73;;;17.70;99.90;;;;;;4593027;19;20025;-69
2023/10/03 04:13:15;;;;;;;13.43;10.07;;;17.60;99.90;;;;;;4592716;19;20006;-68
2023/10/03 04:14:49;;;;;;;12.57;10.15;;;17.60;99.90;;;;;;4592723;19;20023;-69
2023/10/03 04:16:27;;;;;;;14.05;10.90;;;17.60;99.90;;;;;;4592705;19;20074;-69
2023/10/03 04:18:05;;;;;;;11.70;9.80;;;17.50;99.90;;;;;;4590276;19;20031;-69
2023/10/03 04:19:39;;;;;;;12.98;9.80;;;17.50;99.90;;;;;;4592147;19;20010;-68
2023/10/03 04:21:15;;;;;;;11.80;10.45;;;17.50;99.90;;;;;;4592639;19;20003;-70
2023/10/03 04:22:50;;;;;;;13.63;10.10;;;17.40;99.90;;;;;;4592385;19;19998;-68
2023/10/03 04:24:25;;;;;;;12.35;9.70;;;17.40;99.90;;;;;;4592492;19;20445;-68
2023/10/03 04:26:00;;;;;;;12.57;9.13;;;17.40;99.90;;;;;;4592665;19;20366;-68
2023/10/03 04:27:35;;;;;;;12.23;9.80;;;17.40;99.90;;;;;;4591460;19;20023;-69
2023/10/03 04:29:13;;;;;;;12.18;9.85;;;17.40;99.90;;;;;;4592333;19;20341;-68
2023/10/03 04:30:53;;;;;;;11.68;10.05;;;17.40;99.90;;;;;;4592390;19;20007;-69
2023/10/03 04:32:28;;;;;;;11.63;9.05;;;17.40;99.90;;;;;;4592256;19;19999;-69
2023/10/03 04:34:04;;;;;;;13.32;9.68;;;17.30;99.90;;;;;;4592269;19;20066;-69
2023/10/03 04:35:40;;;;;;;12.55;9.20;;;17.30;99.90;;;;;;4592302;19;20322;-68
2023/10/03 04:37:16;;;;;;;13.35;9.93;;;17.30;99.90;;;;;;4591588;19;20340;-68
2023/10/03 04:38:51;;;;;;;11.60;9.10;;;17.30;99.90;;;;;;4592353;19;20003;-68
2023/10/03 04:40:31;;;;;;;11.95;9.68;;;17.30;99.90;;;;;;4592456;19;20006;-68
2023/10/03 04:42:08;;;;;;;11.75;9.25;;;17.30;99.90;;;;;;4591048;19;20414;-68
2023/10/03 04:43:43;;;;;;;12.45;9.68;;;17.30;99.90;;;;;;4590577;19;20038;-68
2023/10/03 04:45:24;;;;;;;10.48;9.02;;;17.30;99.90;;;;;;4591745;19;20021;-68
2023/10/03 04:46:59;;;;;;;12.07;9.35;;;17.30;99.90;;;;;;4591638;19;20030;-69
2023/10/03 04:48:33;;;;;;;12.80;10.20;;;17.30;99.90;;;;;;4592221;19;20037;-68
2023/10/03 04:50:11;;;;;;;13.07;9.82;;;17.30;99.90;;;;;;4592267;19;20081;-69
2023/10/03 04:51:47;;;;;;;12.68;9.65;;;17.30;99.90;;;;;;4591971;19;19998;-68
2023/10/03 04:53:23;;;;;;;12.07;9.55;;;17.30;99.90;;;;;;4590621;19;20034;-68
2023/10/03 04:54:58;;;;;;;13.40;9.88;;;17.30;99.90;;;;;;4591659;19;20010;-68
2023/10/03 04:56:33;;;;;;;11.32;9.52;;;17.30;99.90;;;;;;4591899;19;20002;-69
2023/10/03 04:58:08;;;;;;;13.50;10.10;;;17.30;99.90;;;;;;4590821;19;20317;-68
2023/10/03 04:59:43;;;;;;;12.20;10.10;;;17.30;99.90;;;;;;4592126;19;20344;-68
2023/10/03 05:01:18;;;;;;;12.38;10.13;;;17.30;99.90;;;;;;4592007;19;20078;-70
2023/10/03 05:03:10;;;;;;;12.95;10.30;;;17.30;99.90;;;;;;4591708;19;20023;-68
2023/10/03 05:04:47;;;;;;;12.68;10.00;;;17.30;99.90;;;;;;4591637;19;20005;-69
2023/10/03 05:06:22;;;;;;;12.30;10.60;;;17.30;99.90;;;;;;4593705;19;20003;-68
2023/10/03 05:07:57;;;;;;;14.18;9.88;;;17.30;99.90;;;;;;4594889;19;20010;-68
2023/10/03 05:09:33;;;;;;;13.52;10.70;;;17.30;99.90;;;;;;4596342;19;20298;-69
2023/10/03 05:11:08;;;;;;;14.40;9.65;;;17.20;99.90;;;;;;4596283;19;19995;-69
2023/10/03 05:12:45;;;;;;;12.63;10.48;;;17.30;99.90;;;;;;4596558;19;19998;-69
2023/10/03 05:14:20;;;;;;;13.32;11.40;;;17.20;99.90;;;;;;4596592;19;20014;-69
2023/10/03 05:15:54;;;;;;;14.07;11.13;;;17.20;99.90;;;;;;4596555;19;20003;-69
2023/10/03 05:17:28;;;;;;;13.05;10.30;;;17.20;99.90;;;;;;4595044;19;20041;-69
2023/10/03 05:19:07;;;;;;;14.38;11.18;;;17.20;99.90;;;;;;4596078;19;20006;-68
2023/10/03 05:20:42;;;;;;;13.30;10.13;;;17.20;99.90;;;;;;4596204;19;20109;-69
2023/10/03 05:22:17;;;;;;;12.40;10.15;;;17.20;99.90;;;;;;4596222;19;20434;-68
2023/10/03 05:23:52;;;;;;;15.35;10.70;;;17.20;99.90;;;;;;4596560;19;20010;-68
2023/10/03 05:25:27;;;;;;;13.40;8.95;;;17.20;99.90;;;;;;4596136;19;20354;-69
2023/10/03 05:27:03;;;;;;;12.15;10.45;;;17.20;99.90;;;;;;4595304;19;20070;-69
2023/10/03 05:28:40;;;;;;;11.90;9.60;;;17.20;99.90;;;;;;4596084;19;20006;-68
2023/10/03 05:30:15;;;;;;;12.07;9.98;;;17.20;99.90;;;;;;4595866;19;20006;-69
2023/10/03 05:31:49;;;;;;;13.38;9.80;;;17.20;99.90;;;;;;4596099;19;20013;-69
2023/10/03 05:33:25;;;;;;;13.73;9.85;;;17.20;99.90;;;;;;4596106;19;20024;-68
2023/10/03 05:35:00;;;;;;;12.48;10.00;;;17.20;99.90;;;;;;4595807;19;20002;-68
2023/10/03 05:36:35;;;;;;;13.57;10.05;;;17.20;99.90;;;;;;4594384;19;20034;-69
2023/10/03 05:38:12;;;;;;;11.38;9.80;;;17.20;99.90;;;;;;4594953;19;20007;-68
2023/10/03 05:39:47;;;;;;;13.90;10.07;;;17.20;99.90;;;;;;4595750;19;20003;-68
2023/10/03 05:41:21;;;;;;;14.07;10.40;;;17.20;99.90;;;;;;4595711;19;20115;-68
2023/10/03 05:42:58;;;;;;;13.48;9.75;;;17.20;99.90;;;;;;4594472;19;20010;-69
2023/10/03 05:44:33;;;;;;;11.75;9.43;;;17.20;99.90;;;;;;4594334;19;20116;-68
2023/10/03 05:46:07;;;;;;;13.00;9.85;;;17.30;99.90;;;;;;4595314;19;20070;-68
2023/10/03 05:47:46;;;;;;;13.63;9.05;;;17.20;99.90;;;;;;4594294;19;20006;-69
2023/10/03 05:49:20;;;;;;;13.05;9.85;;;17.20;99.90;;;;;;4594468;19;20390;-69
2023/10/03 05:50:56;;;;;;;12.70;9.82;;;17.30;99.90;;;;;;4594228;19;20066;-69
2023/10/03 05:52:31;;;;;;;12.85;9.52;;;17.30;99.90;;;;;;4595268;19;20073;-68
2023/10/03 05:54:18;;;;;;;12.75;9.73;;;17.30;99.90;;;;;;4595745;19;19999;-85
2023/10/03 05:55:54;;;;;;;11.38;9.07;;;17.30;99.90;;;;;;4594079;19;19999;-72
2023/10/03 05:57:29;;;;;;;10.55;8.77;;;17.30;99.90;;;;;;4593651;19;20055;-72
2023/10/03 05:59:03;;;;;;;13.80;10.02;;;17.30;99.90;;;;;;4595139;19;19999;-72
2023/10/03 06:00:37;;;;;;;11.15;9.48;;;17.30;99.90;;;;;;4595145;19;20290;-73
2023/10/03 06:02:12;;;;;;;12.32;9.70;;;17.30;99.90;;;;;;4593783;19;20021;-72
2023/10/03 06:03:46;;;;;;;11.52;9.55;;;17.30;99.90;;;;;;4594580;19;20003;-72
2023/10/03 06:05:22;;;;;;;12.23;9.25;;;17.40;99.90;;;;;;4593808;19;19994;-72
2023/10/03 06:06:57;;;;;;;12.00;9.90;;;17.40;99.90;;;;;;4593997;19;20330;-72
2023/10/03 06:08:32;;;;;;;10.02;8.82;;;17.40;99.90;;;;;;4594696;19;20434;-72
2023/10/03 06:10:06;;;;;;;14.10;10.07;;;17.40;99.90;;;;;;4594790;19;20007;-72
2023/10/03 06:11:42;;;;;;;12.48;9.70;;;17.40;99.90;;;;;;4594807;19;20044;-72
2023/10/03 06:13:16;;;;;;;13.30;10.05;;;17.40;99.90;;;;;;4594935;19;20073;-72
2023/10/03 06:14:50;;;;;;;12.60;9.93;;;17.40;99.90;;;;;;4594820;19;20007;-72
2023/10/03 06:16:28;;;;;;;11.65;8.88;;;17.50;99.90;;;;;;4594678;19;20298;-72
2023/10/03 06:18:02;;;;;;;11.90;8.98;;;17.50;99.90;;;;;;4589410;19;20018;-72
2023/10/03 06:19:36;;;;;;;10.75;9.05;;;17.50;99.90;;;;;;4594243;19;20006;-72
2023/10/03 06:21:12;;;;;;;12.52;9.25;;;17.50;99.90;;;;;;4593429;19;20066;-72
2023/10/03 06:22:46;;;;;;;10.82;8.88;;;17.50;99.90;;;;;;4594500;19;20077;-72
2023/10/03 06:24:20;;;;;;;12.20;9.82;;;17.50;99.90;;;;;;4593713;19;20434;-72
2023/10/03 06:25:55;;;;;;;12.65;8.90;;;17.50;99.90;;;;;;4595254;19;20035;-71
2023/10/03 06:27:29;;;;;;;14.15;9.82;;;17.50;99.90;;;;;;4593952;19;20013;-72
2023/10/03 06:29:03;;;;;;;14.20;9.88;;;17.50;99.90;;;;;;4594973;19;19999;-72
2023/10/03 06:30:39;;;;;;;13.32;9.70;;;17.60;99.90;;;;;;4594748;19;20077;-72
2023/10/03 06:32:13;;;;;;;14.40;10.18;;;17.60;99.90;;;;;;4594561;19;20017;-72
2023/10/03 06:33:47;;;;;;;13.15;9.73;;;17.60;99.90;;;;;;4594924;19;20063;-72
2023/10/03 06:35:22;;;;;;;12.05;9.52;;;17.60;99.90;;;;;;4594658;19;20298;-72
2023/10/03 06:36:56;;;;;;;13.88;10.02;;;17.60;99.90;;;;;;4594107;19;20003;-72
2023/10/03 06:38:30;;;;;;;15.20;10.18;;;17.60;99.90;;;;;;4594841;19;20002;-72
2023/10/03 06:40:08;;;;;;;13.57;9.98;;;17.60;99.90;;;;;;4593198;19;20014;-72
2023/10/03 06:41:42;;;;;;;12.40;10.10;;;17.60;99.90;;;;;;4593523;19;20056;-72
2023/10/03 06:43:17;;;;;;;13.85;10.35;;;17.70;99.90;;;;;;4594098;19;20013;-72
2023/10/03 06:44:52;;;;;;;11.73;9.98;;;17.70;99.90;;;;;;4593329;19;20079;-72
2023/10/03 06:46:26;;;;;;;15.27;10.18;;;17.70;99.90;;;;;;4592922;19;20014;-72
2023/10/03 06:48:03;;;;;;;13.68;9.55;;;17.70;99.90;;;;;;4592802;19;20420;-72
2023/10/03 06:49:38;;;;;;;13.90;10.10;;;17.70;99.90;;;;;;4593349;19;20042;-72
2023/10/03 06:51:12;;;;;;;13.80;10.25;;;17.70;99.90;;;;;;4594288;19;20425;-72
2023/10/03 06:52:47;;;;;;;11.57;9.55;;;17.80;99.90;;;;;;4594517;19;20011;-71
2023/10/03 06:54:23;;;;;;;11.57;9.35;;;17.80;99.90;;;;;;4592872;19;20006;-72
2023/10/03 06:55:57;;;;;;;11.75;9.75;;;17.80;99.90;;;;;;4594206;19;20010;-72
2023/10/03 06:57:32;;;;;;;11.73;8.98;;;17.80;99.90;;;;;;4593268;19;20402;-72
2023/10/03 06:59:10;;;;;;;11.48;9.32;;;17.90;99.90;;;;;;4592878;19;20036;-72
2023/10/03 07:00:44;;;;;;;12.88;9.88;;;17.90;99.90;;;;;;4593927;19;20010;-71
2023/10/03 07:02:18;;;;;;;13.60;9.70;;;17.90;99.90;;;;;;4592741;19;20320;-72
2023/10/03 07:03:56;;;;;;;14.07;9.43;;;17.90;99.90;;;;;;4594029;19;20433;-72
2023/10/03 07:05:29;;;;;;;13.10;9.52;;;17.90;99.90;;;;;;4594266;19;20078;-72
2023/10/03 07:07:05;;;;;;;12.02;9.48;;;18.00;99.90;;;;;;4593362;19;20005;-72
2023/10/03 07:08:41;;;;;;;13.50;9.90;;;18.00;99.90;;;;;;4594251;19;20026;-72
2023/10/03 07:10:15;;;;;;;12.52;9.48;;;18.00;99.90;;;;;;4593842;19;20003;-72
2023/10/03 07:11:49;;;;;;;12.77;10.25;;;18.10;99.90;;;;;;4593873;19;20006;-72
2023/10/03 07:13:26;;;;;;;12.63;8.63;;;18.10;99.90;;;;;;4593846;19;20017;-71
2023/10/03 07:14:59;;;;;;;12.20;9.57;;;18.10;99.90;;;;;;4594080;19;20035;-71
2023/10/03 07:16:42;;;;;;;12.45;9.35;;;18.10;99.90;;;;;;4592318;19;20003;-72
2023/10/03 07:18:17;;;;;;;11.98;8.35;;;18.20;99.90;;;;;;4590574;19;20422;-72
2023/10/03 07:19:51;;;;;;;12.85;9.52;;;18.20;99.90;;;;;;4593040;19;20033;-73
2023/10/03 07:21:25;;;;;;;11.57;8.65;;;18.20;99.90;;;;;;4592230;19;20019;-72
2023/10/03 07:23:02;;;;;;;14.32;9.57;;;18.30;99.90;;;;;;4592182;19;20021;-72
2023/10/03 07:24:36;;;;;;;12.15;9.18;;;18.30;99.90;;;;;;4592866;19;20006;-72
2023/10/03 07:26:09;;;;;;;13.25;9.77;;;18.30;99.90;;;;;;4593737;19;20069;-72
2023/10/03 07:27:45;;;;;;;10.88;7.88;;;18.30;99.90;;;;;;4591160;19;20410;-72
2023/10/03 07:29:20;;;;;;;11.05;7.72;;;18.40;99.90;;;;;;4592153;19;20015;-72
2023/10/03 07:30:56;;;;;;;13.50;9.15;;;18.40;99.90;;;;;;4593370;19;20441;-72
2023/10/03 07:32:32;;;;;;;11.45;8.38;;;18.40;99.90;;;;;;4592846;19;20010;-72
2023/10/03 07:34:07;;;;;;;9.82;7.78;;;18.50;99.90;;;;;;4593186;19;20006;-72
2023/10/03 07:35:42;;;;;;;11.95;7.80;;;18.50;99.90;;;;;;4593158;19;19998;-72
2023/10/03 07:37:18;;;;;;;11.93;8.68;;;18.50;99.90;;;;;;4592490;19;20007;-72
2023/10/03 07:38:51;;;;;;;13.55;9.02;;;18.50;99.90;;;;;;4592796;19;20291;-72
2023/10/03 07:40:27;;;;;;;13.20;8.80;;;18.60;99.90;;;;;;4592946;19;20098;-72
2023/10/03 07:42:04;;;;;;;11.57;7.95;;;18.60;99.90;;;;;;4593105;19;20007;-72
2023/10/03 07:43:38;;;;;;;11.10;7.88;;;18.60;99.90;;;;;;4592915;19;20005;-72
2023/10/03 07:45:13;;;;;;;11.68;8.15;;;18.70;99.90;;;;;;4593282;19;20006;-71
2023/10/03 07:46:48;;;;;;;11.90;7.85;;;18.70;99.90;;;;;;4592469;19;20359;-72
2023/10/03 07:48:22;;;;;;;10.45;7.90;;;18.70;99.90;;;;;;4591746;19;19998;-72
2023/10/03 07:49:59;;;;;;;12.93;7.57;;;18.80;99.90;;;;;;4592850;19;19995;-72
2023/10/03 07:51:35;;;;;;;11.23;7.75;;;18.80;99.90;;;;;;4593111;19;20010;-72
2023/10/03 07:53:12;;;;;;;10.65;7.60;;;18.80;99.90;;;;;;4593342;19;20003;-72
2023/10/03 07:54:54;;;;;;;12.95;7.65;;;18.80;99.90;;;;;;4593448;19;20014;-72
2023/10/03 07:56:30;;;;;;;11.65;8.05;;;18.90;99.90;;;;;;4593373;19;20298;-72
2023/10/03 07:58:05;;;;;;;11.13;7.57;;;18.90;99.90;;;;;;4591843;19;20010;-72
2023/10/03 07:59:39;;;;;;;10.82;7.47;;;18.90;99.90;;;;;;4591628;19;20025;-72
2023/10/03 08:01:14;;;;;;;12.07;8.00;;;18.90;99.90;;;;;;4593013;19;20019;-72
2023/10/03 08:02:49;;;;;;;12.88;7.75;;;18.90;99.90;;;;;;4591620;19;20070;-71
2023/10/03 08:04:24;;;;;;;12.10;7.65;;;19.00;99.90;;;;;;4592931;19;20025;-72
2023/10/03 08:06:00;;;;;;;9.93;7.25;;;19.00;99.90;;;;;;4592863;19;20007;-72
2023/10/03 08:07:38;;;;;;;11.80;7.47;;;19.00;99.90;;;;;;4592156;19;20002;-72
2023/10/03 08:09:11;;;;;;;12.57;8.20;;;19.00;99.90;;;;;;4593046;19;20011;-72
2023/10/03 08:10:49;;;;;;;11.15;7.80;;;19.10;99.90;;;;;;4592775;19;20002;-72
2023/10/03 08:12:29;;;;;;;9.90;7.10;;;19.10;99.90;;;;;;4592925;19;20515;-72
2023/10/03 08:14:13;;;;;;;12.15;7.90;;;19.10;99.90;;;;;;4593065;19;20021;-72
2023/10/03 08:15:48;;;;;;;9.65;6.47;;;19.20;99.90;;;;;;4591094;19;20006;-72
2023/10/03 08:17:27;;;;;;;10.18;7.20;;;19.20;99.90;;;;;;4590990;19;20025;-72
2023/10/03 08:19:08;;;;;;;11.63;7.78;;;19.30;99.90;;;;;;4590759;19;20006;-72
2023/10/03 08:20:53;;;;;;;11.38;7.72;;;19.30;99.90;;;;;;4592349;19;20465;-72
2023/10/03 08:22:28;;;;;;;9.68;6.78;;;19.30;99.90;;;;;;4591163;19;20006;-71
2023/10/03 08:24:14;;;;;;;11.35;7.10;;;19.30;99.90;;;;;;4592162;19;20005;-72
2023/10/03 08:25:50;;;;;;;9.13;6.32;;;19.30;99.90;;;;;;4591236;19;20002;-72
2023/10/03 08:27:30;;;;;;;11.30;6.82;;;19.40;99.90;;;;;;4591465;19;20306;-72
2023/10/03 08:29:05;;;;;;;11.18;6.88;;;19.50;99.90;;;;;;4591040;19;20010;-73
2023/10/03 08:30:42;;;;;;;9.32;6.45;;;19.40;99.90;;;;;;4591555;19;20425;-72